首页
METAR-TAF:

METAR-TAF

机场 :

大不里士, 伊朗

纬度: 38-05N, 经度: 046-17E, 海拔: 1367米

当前天气观测

该预报发布于21分钟前的06:00 UTC
风速2节,风向多变
温度 3°C
湿度 87%
气压 1025 hPa
能見度: 1200
散云层高于700英尺
阴天层高于8000英尺
轻雾

METAR: OITT 010600Z VRB02KT 1200 R30/P2000 BR SCT007 OVC080 03/01 Q1024 A3026 NOSIG

时间: 09:51 (06:21 UTC)

预报

该预报发布于31分钟前的05:50 UTC
预报有效从01日的 06点(UTC)到 02日的 12点(UTC)
风速4节,风向西转西北
能見度: 2000
少量云层高于1000英尺
散云层高于2500英尺
多云层高于7000英尺
轻雾
成为
从 01日的 08点(UTC)到 01日的 10点(UTC)
能見度: 6000
成为
从 01日的 17点(UTC)到 01日的 19点(UTC)
能見度: 4000
轻雾
成为
从 01日的 22点(UTC)到 01日的 23点(UTC)
能見度: 2000
轻雾
短暂存在
从 01日的 23点(UTC)到 02日的 04点(UTC)
能見度: 0800
多云层高于500英尺
成为
从 02日的 05点(UTC)到 02日的 07点(UTC)
风速8节,风向东转东北
能見度: 7000
少量云层高于4000英尺
散云层高于10000英尺

TAF: OITT 010550Z 0106/0212 30004KT 2000 BR FEW010 SCT025 BKN070 BECMG 0108/0110 6000 BECMG 0117/0119 4000 BR BECMG 0122/0123 2000 BR TEMPO 0123/0204 0800 FG BKN005 BECMG 0205/0207 07008KT 7000 FEW040 SCT100

超过4000个机场的气象观测和天气预报(METAR&TAF报告)。

可查询的气象台以黄色和红色小点在地图上表示。

将鼠标移到小点上方,可查看气象台名称。

然后点击查看天气观测和预报。

如需切换地图:点击带黑十字的绿色按钮放大地图;点击带横线的绿色按钮缩小地图;或者点击绿色箭头查看邻近地区的地图。


METAR-TAF: